Time;durP1;ratioP1;P1;durP2;ratioP2;P2;SDS_P1;SDS_P2;PMS_P1;PMS_P2;Temp;Humidity;BMP_temperature;BMP_pressure;BME280_temperature;BME280_humidity;BME280_pressure;Samples;Min_cycle;Max_cycle;Signal;HPM_P1;HPM_P2
2020/12/09 00:01:52;;;;;;;18.75;7.25;;;0.40;99.90;;;;;;5011934;28;20030;-82
2020/12/09 00:07:44;;;;;;;16.90;7.38;;;0.30;99.90;;;;;;4890478;29;20059;-83
2020/12/09 00:10:09;;;;;;;21.50;7.38;;;0.30;99.90;;;;;;4892229;29;20112;-82
2020/12/09 00:12:35;;;;;;;23.55;6.60;;;0.30;99.90;;;;;;4892011;29;20040;-82
2020/12/09 00:15:06;;;;;;;18.00;6.38;;;0.30;99.90;;;;;;4892156;29;20057;-82
2020/12/09 00:17:32;;;;;;;19.70;7.00;;;0.20;99.90;;;;;;4876893;29;20041;-82
2020/12/09 00:19:57;;;;;;;16.17;6.72;;;0.30;99.90;;;;;;4876568;29;20041;-82
2020/12/09 00:22:24;;;;;;;22.52;8.07;;;0.30;99.90;;;;;;4873363;29;20306;-82
2020/12/09 00:24:50;;;;;;;19.25;7.55;;;0.20;99.90;;;;;;4888631;29;20033;-83
2020/12/09 00:27:16;;;;;;;15.65;7.85;;;0.20;99.90;;;;;;4889057;29;20059;-82
2020/12/09 00:29:42;;;;;;;19.23;8.10;;;0.30;99.90;;;;;;4873419;29;20041;-83
2020/12/09 00:32:07;;;;;;;16.45;7.78;;;0.30;99.90;;;;;;4888850;29;20074;-84
2020/12/09 00:34:33;;;;;;;19.30;7.72;;;0.30;99.90;;;;;;4873136;29;20097;-82
2020/12/09 00:36:58;;;;;;;17.13;7.15;;;0.30;99.90;;;;;;4888662;29;20053;-83
2020/12/09 00:39:24;;;;;;;17.30;8.13;;;0.30;99.90;;;;;;4888774;29;20076;-82
2020/12/09 00:41:50;;;;;;;15.63;7.93;;;0.30;99.90;;;;;;4888907;29;20037;-84
2020/12/09 00:44:16;;;;;;;17.52;7.28;;;0.30;99.90;;;;;;4940911;28;20054;-83
2020/12/09 00:46:41;;;;;;;19.85;7.50;;;0.30;99.90;;;;;;4992874;28;20125;-83
2020/12/09 00:49:07;;;;;;;16.10;7.00;;;0.30;99.90;;;;;;5007500;28;20061;-83
2020/12/09 00:51:35;;;;;;;13.27;7.20;;;0.30;99.90;;;;;;5007787;28;20486;-83
2020/12/09 00:54:01;;;;;;;17.77;8.07;;;0.30;99.90;;;;;;5023596;28;20058;-83
2020/12/09 00:56:30;;;;;;;13.20;6.90;;;0.30;99.90;;;;;;5024143;28;20115;-83
2020/12/09 00:59:03;;;;;;;24.45;7.45;;;0.30;99.90;;;;;;5008158;28;20094;-83
2020/12/09 01:01:29;;;;;;;18.67;7.55;;;0.30;99.90;;;;;;4990958;28;20026;-83
2020/12/09 01:10:41;;;;;;;17.50;5.85;;;0.40;99.90;;;;;;4990780;23;20057;-83
2020/12/09 01:13:06;;;;;;;17.98;5.70;;;0.30;99.90;;;;;;4950286;29;20047;-83
2020/12/09 01:15:32;;;;;;;22.15;5.90;;;0.20;99.90;;;;;;4944371;29;20102;-83
2020/12/09 01:17:57;;;;;;;16.73;5.43;;;0.20;99.90;;;;;;4968208;29;20042;-84
2020/12/09 01:20:23;;;;;;;16.60;5.80;;;0.20;99.90;;;;;;4936317;29;20472;-83
2020/12/09 01:22:49;;;;;;;14.68;5.65;;;0.10;99.90;;;;;;4952504;29;20124;-84
2020/12/09 01:25:14;;;;;;;14.57;5.88;;;0.00;99.90;;;;;;4951898;29;20020;-83
2020/12/09 01:27:40;;;;;;;11.18;5.50;;;0.00;99.90;;;;;;4951895;29;20031;-85
2020/12/09 01:30:05;;;;;;;14.10;7.70;;;-0.10;99.90;;;;;;4952156;29;20258;-83
2020/12/09 01:32:31;;;;;;;24.05;6.72;;;-0.10;99.90;;;;;;4951999;29;20031;-84
2020/12/09 01:34:57;;;;;;;14.48;6.38;;;-0.20;99.90;;;;;;4951425;29;20039;-84
2020/12/09 01:37:22;;;;;;;11.65;5.28;;;-0.20;99.90;;;;;;4951499;29;20357;-83
2020/12/09 01:39:48;;;;;;;10.35;5.20;;;-0.20;99.90;;;;;;4951721;29;20034;-83
2020/12/09 01:42:14;;;;;;;12.75;5.75;;;-0.20;99.90;;;;;;4951834;29;20043;-84
2020/12/09 01:44:40;;;;;;;13.95;6.25;;;-0.10;99.90;;;;;;4951284;29;20032;-83
2020/12/09 01:47:06;;;;;;;16.40;6.55;;;-0.10;99.90;;;;;;4951442;29;20039;-83
2020/12/09 01:49:33;;;;;;;9.90;5.10;;;-0.10;99.90;;;;;;4967569;29;20394;-83
2020/12/09 01:52:02;;;;;;;11.75;5.40;;;-0.10;99.90;;;;;;4951508;29;20051;-83
2020/12/09 01:54:27;;;;;;;12.55;5.30;;;-0.10;99.90;;;;;;4951410;29;20031;-83
2020/12/09 01:57:10;;;;;;;12.68;6.22;;;-0.10;99.90;;;;;;4951506;29;20046;-84
2020/12/09 01:59:38;;;;;;;11.00;5.95;;;-0.10;99.90;;;;;;4951251;29;20091;-86
2020/12/09 02:02:04;;;;;;;12.60;6.22;;;0.00;99.90;;;;;;4951494;29;20035;-83
2020/12/09 02:07:34;;;;;;;9.80;5.22;;;-0.10;99.90;;;;;;4988561;28;20042;-83
2020/12/09 02:10:04;;;;;;;12.30;5.63;;;-0.10;99.90;;;;;;4990059;28;20065;-84
2020/12/09 02:12:32;;;;;;;11.85;5.97;;;0.00;99.90;;;;;;5009562;28;20030;-82
2020/12/09 02:14:58;;;;;;;15.10;5.97;;;0.00;99.90;;;;;;5016625;28;20033;-83
2020/12/09 02:17:24;;;;;;;10.82;5.43;;;-0.10;99.90;;;;;;5029091;28;20025;-83
2020/12/09 02:19:49;;;;;;;28.08;6.80;;;-0.20;99.90;;;;;;5012713;28;20044;-81
2020/12/09 02:22:15;;;;;;;15.30;5.82;;;-0.20;99.90;;;;;;5005988;28;20038;-82
2020/12/09 02:24:41;;;;;;;13.38;6.20;;;-0.20;99.90;;;;;;4989585;28;20030;-81
2020/12/09 02:27:06;;;;;;;11.93;6.18;;;-0.20;99.90;;;;;;4989693;28;20046;-83
2020/12/09 02:29:32;;;;;;;15.30;5.55;;;-0.20;99.90;;;;;;4989800;28;20050;-84
2020/12/09 02:31:58;;;;;;;16.30;5.68;;;-0.20;99.90;;;;;;4989676;28;20038;-83
2020/12/09 02:34:23;;;;;;;14.45;5.18;;;-0.10;99.90;;;;;;5005569;28;20034;-83
2020/12/09 02:36:49;;;;;;;9.43;5.05;;;-0.10;99.90;;;;;;5005819;28;20474;-83
2020/12/09 02:39:15;;;;;;;11.85;5.90;;;-0.20;99.90;;;;;;4989723;28;20046;-83
2020/12/09 02:41:40;;;;;;;9.60;5.65;;;-0.30;99.90;;;;;;4989351;28;20077;-83
2020/12/09 02:44:06;;;;;;;11.88;5.10;;;-0.40;99.90;;;;;;4989024;28;20069;-82
2020/12/09 02:46:32;;;;;;;12.98;5.65;;;-0.40;99.90;;;;;;4989549;28;20065;-83
2020/12/09 02:48:57;;;;;;;13.48;6.03;;;-0.40;99.90;;;;;;5005051;28;20030;-82
2020/12/09 02:51:24;;;;;;;11.48;5.70;;;-0.40;99.90;;;;;;4989539;28;20022;-84
2020/12/09 02:53:49;;;;;;;12.35;5.65;;;-0.40;99.90;;;;;;5005662;28;20363;-82
2020/12/09 02:56:21;;;;;;;14.18;5.85;;;-0.40;99.90;;;;;;4989464;28;20061;-83
2020/12/09 02:58:47;;;;;;;11.93;5.22;;;-0.30;99.90;;;;;;4989626;28;20038;-83
2020/12/09 03:01:13;;;;;;;10.88;6.03;;;-0.30;99.90;;;;;;5005516;28;20061;-83
2020/12/09 03:07:05;;;;;;;10.85;5.05;;;-0.30;99.90;;;;;;4950733;23;20114;-83
2020/12/09 03:09:30;;;;;;;9.60;4.93;;;-0.30;99.90;;;;;;4973394;28;20120;-83
2020/12/09 03:11:56;;;;;;;11.02;4.57;;;-0.30;99.90;;;;;;4973245;28;20094;-83
2020/12/09 03:14:22;;;;;;;17.50;4.97;;;-0.20;99.90;;;;;;4970206;28;20113;-83
2020/12/09 03:16:47;;;;;;;9.85;4.97;;;-0.20;99.90;;;;;;4985566;28;20034;-84
2020/12/09 03:19:13;;;;;;;10.90;4.60;;;-0.20;99.90;;;;;;4985886;28;20038;-85
2020/12/09 03:21:42;;;;;;;11.07;4.75;;;-0.20;99.90;;;;;;4988724;28;20054;-83
2020/12/09 03:24:09;;;;;;;9.13;5.00;;;-0.20;99.90;;;;;;4988610;28;20074;-83
2020/12/09 03:26:35;;;;;;;10.68;4.72;;;-0.20;99.90;;;;;;4972652;28;20034;-83
2020/12/09 03:29:00;;;;;;;8.75;4.72;;;-0.30;99.90;;;;;;4988918;28;20073;-84
2020/12/09 03:31:26;;;;;;;10.60;4.85;;;-0.30;99.90;;;;;;4988795;28;20474;-85
2020/12/09 03:33:51;;;;;;;8.38;4.35;;;-0.30;99.90;;;;;;4988697;28;20041;-83
2020/12/09 03:36:17;;;;;;;8.63;3.40;;;-0.40;99.90;;;;;;4989058;28;20048;-83
2020/12/09 03:38:43;;;;;;;8.13;4.07;;;-0.50;99.90;;;;;;5005292;28;20018;-83
2020/12/09 03:41:09;;;;;;;8.35;4.82;;;-0.50;99.90;;;;;;4988625;28;20038;-83
2020/12/09 03:43:34;;;;;;;8.23;4.68;;;-0.40;99.90;;;;;;4988455;28;20042;-84
2020/12/09 03:46:00;;;;;;;9.73;5.07;;;-0.40;99.90;;;;;;4988700;28;20050;-84
2020/12/09 03:48:26;;;;;;;9.10;4.70;;;-0.30;99.90;;;;;;4988895;28;20061;-85
2020/12/09 03:50:51;;;;;;;8.13;4.70;;;-0.30;99.90;;;;;;4988711;28;20061;-84
2020/12/09 03:53:17;;;;;;;9.13;4.97;;;-0.20;99.90;;;;;;4988577;28;20041;-83
2020/12/09 03:55:42;;;;;;;7.10;4.05;;;-0.10;99.90;;;;;;4988477;28;20030;-83
2020/12/09 03:58:08;;;;;;;11.32;4.65;;;-0.10;99.90;;;;;;4988609;28;20034;-83
2020/12/09 04:00:34;;;;;;;11.15;5.60;;;0.00;99.90;;;;;;4990839;28;20060;-84
2020/12/09 04:03:00;;;;;;;9.30;4.28;;;0.00;99.90;;;;;;4992370;28;20046;-84
2020/12/09 04:05:25;;;;;;;8.88;4.28;;;0.00;99.90;;;;;;4992016;28;20042;-85
2020/12/09 04:07:51;;;;;;;8.25;4.45;;;0.00;99.90;;;;;;4991953;28;20071;-83
2020/12/09 04:10:17;;;;;;;8.50;4.45;;;0.10;99.90;;;;;;4991944;28;20082;-84
2020/12/09 04:12:43;;;;;;;9.65;4.68;;;0.10;99.90;;;;;;4992025;28;20061;-82
2020/12/09 04:15:09;;;;;;;7.93;4.65;;;0.10;99.90;;;;;;4992002;28;20037;-84
2020/12/09 04:17:35;;;;;;;11.43;5.97;;;0.10;99.90;;;;;;4975726;28;20042;-83
2020/12/09 04:20:01;;;;;;;9.60;5.63;;;0.10;99.90;;;;;;4991810;28;20030;-83
2020/12/09 04:22:26;;;;;;;11.63;6.07;;;0.10;99.90;;;;;;4991686;28;20034;-83
2020/12/09 04:24:52;;;;;;;10.20;5.28;;;0.20;99.90;;;;;;4975524;28;20034;-84
2020/12/09 04:27:18;;;;;;;11.25;5.50;;;0.20;99.90;;;;;;4975657;28;20038;-83
2020/12/09 04:29:44;;;;;;;10.20;5.10;;;0.20;99.90;;;;;;4975807;28;20085;-83
2020/12/09 04:32:09;;;;;;;10.43;5.03;;;0.30;99.90;;;;;;4991685;28;20034;-86
2020/12/09 04:34:36;;;;;;;8.65;4.50;;;0.30;99.90;;;;;;4975385;28;20493;-83
2020/12/09 04:37:02;;;;;;;10.70;4.82;;;0.40;99.90;;;;;;4991788;28;20474;-82
2020/12/09 04:39:28;;;;;;;10.23;5.13;;;0.40;99.90;;;;;;4991683;28;20046;-83
2020/12/09 04:41:54;;;;;;;14.05;5.80;;;0.40;99.90;;;;;;5008881;28;20037;-84
2020/12/09 04:44:19;;;;;;;13.38;5.68;;;0.50;99.90;;;;;;4975229;28;20562;-83
2020/12/09 04:46:47;;;;;;;11.70;5.20;;;0.50;99.90;;;;;;4991353;28;20030;-84
2020/12/09 04:49:23;;;;;;;13.52;6.28;;;0.50;99.90;;;;;;4975278;28;20092;-83
2020/12/09 04:52:08;;;;;;;13.85;6.38;;;0.50;99.90;;;;;;4991625;28;20520;-82
2020/12/09 04:54:42;;;;;;;13.80;6.28;;;0.50;99.90;;;;;;4974967;28;20034;-83
2020/12/09 04:57:40;;;;;;;10.75;5.00;;;0.50;99.90;;;;;;4975197;28;20449;-83
2020/12/09 05:00:11;;;;;;;13.88;5.88;;;0.60;99.90;;;;;;4991192;28;20038;-83
2020/12/09 05:02:54;;;;;;;14.57;6.05;;;0.60;99.90;;;;;;4990826;28;20038;-84
2020/12/09 05:05:22;;;;;;;14.05;5.95;;;0.50;99.90;;;;;;5001503;23;20084;-82
2020/12/09 05:07:50;;;;;;;13.70;5.90;;;0.60;99.90;;;;;;5030563;28;20044;-82
2020/12/09 05:10:18;;;;;;;13.32;5.43;;;0.50;99.90;;;;;;5014067;28;20022;-82
2020/12/09 05:12:49;;;;;;;18.98;8.52;;;0.60;99.90;;;;;;5029372;28;20080;-83
2020/12/09 05:15:21;;;;;;;15.48;6.57;;;0.50;99.90;;;;;;5013776;28;20029;-85
2020/12/09 05:17:52;;;;;;;13.55;6.30;;;0.60;99.90;;;;;;5030149;28;20025;-83
2020/12/09 05:20:25;;;;;;;13.38;6.32;;;0.60;99.90;;;;;;5030011;28;20033;-84
2020/12/09 05:22:54;;;;;;;12.73;6.57;;;0.60;99.90;;;;;;5029580;28;20067;-83
2020/12/09 05:25:21;;;;;;;14.10;7.05;;;0.60;99.90;;;;;;5047735;28;20060;-83
2020/12/09 05:27:47;;;;;;;15.02;7.40;;;0.60;99.90;;;;;;5013715;28;20029;-82
2020/12/09 05:30:12;;;;;;;15.73;8.05;;;0.60;99.90;;;;;;5030051;28;20501;-83
2020/12/09 05:32:54;;;;;;;17.05;7.55;;;0.60;99.90;;;;;;5029786;28;20029;-82
2020/12/09 05:35:22;;;;;;;15.20;7.22;;;0.60;99.90;;;;;;5013678;28;20041;-82
2020/12/09 05:38:10;;;;;;;16.90;7.90;;;0.70;99.90;;;;;;4995685;28;20061;-83
2020/12/09 05:40:41;;;;;;;17.58;7.35;;;0.70;99.90;;;;;;4992310;28;20061;-84
2020/12/09 05:43:07;;;;;;;16.92;6.53;;;0.70;99.90;;;;;;4993089;28;20045;-83
2020/12/09 05:45:33;;;;;;;15.45;7.20;;;0.70;99.90;;;;;;4993369;28;20034;-83
2020/12/09 05:48:19;;;;;;;21.13;7.30;;;0.70;99.90;;;;;;4993387;28;20045;-82
2020/12/09 05:50:47;;;;;;;14.80;6.78;;;0.80;99.90;;;;;;4992114;28;20029;-81
2020/12/09 05:53:18;;;;;;;17.70;7.78;;;0.80;99.90;;;;;;4992064;28;20033;-81
2020/12/09 05:55:44;;;;;;;14.00;6.78;;;0.80;99.90;;;;;;5025979;28;20500;-82
2020/12/09 05:58:25;;;;;;;15.88;7.28;;;0.80;99.90;;;;;;5025690;28;20030;-81
2020/12/09 06:01:14;;;;;;;15.98;6.90;;;0.80;99.90;;;;;;5026137;28;20033;-81
2020/12/09 06:04:00;;;;;;;15.52;6.88;;;0.90;99.90;;;;;;5008739;28;20192;-81
2020/12/09 06:06:27;;;;;;;15.48;7.40;;;0.90;99.90;;;;;;4961143;28;20051;-80
2020/12/09 06:08:53;;;;;;;19.27;8.65;;;0.90;99.90;;;;;;4953141;28;20035;-82
2020/12/09 06:11:24;;;;;;;16.85;7.85;;;0.90;99.90;;;;;;4953003;28;20050;-82
2020/12/09 06:13:51;;;;;;;20.60;8.77;;;0.90;99.90;;;;;;4952906;28;20066;-82
2020/12/09 06:16:18;;;;;;;20.90;8.73;;;0.90;99.90;;;;;;4969156;28;20064;-82
2020/12/09 06:18:49;;;;;;;16.90;8.32;;;0.80;99.90;;;;;;4984178;28;20161;-80
2020/12/09 06:21:15;;;;;;;20.35;8.38;;;0.80;99.90;;;;;;4959422;28;20120;-82
2020/12/09 06:23:42;;;;;;;18.15;8.23;;;0.80;99.90;;;;;;4987748;28;20054;-86
2020/12/09 06:26:08;;;;;;;21.45;8.57;;;0.90;99.90;;;;;;4988092;28;20030;-83
2020/12/09 06:28:36;;;;;;;20.67;8.48;;;0.80;99.90;;;;;;4975666;28;20058;-82
2020/12/09 06:31:22;;;;;;;25.52;9.55;;;0.80;99.90;;;;;;4971916;28;20046;-83
2020/12/09 06:33:54;;;;;;;21.17;9.07;;;0.90;99.90;;;;;;4987681;28;20049;-83
2020/12/09 06:36:32;;;;;;;19.80;8.38;;;0.80;99.90;;;;;;4988009;28;20064;-82
2020/12/09 06:39:17;;;;;;;22.60;8.57;;;0.90;99.90;;;;;;4987893;28;20030;-83
2020/12/09 06:41:56;;;;;;;20.38;10.05;;;0.80;99.90;;;;;;5004262;28;20030;-82
2020/12/09 06:44:28;;;;;;;18.60;7.53;;;0.90;99.90;;;;;;5005112;28;20046;-82
2020/12/09 06:46:54;;;;;;;19.88;8.05;;;0.80;99.90;;;;;;5008486;28;20026;-81
2020/12/09 06:49:28;;;;;;;17.55;7.88;;;0.80;99.90;;;;;;4992231;28;20053;-81
2020/12/09 06:51:59;;;;;;;19.73;8.65;;;0.70;99.90;;;;;;4983050;28;20089;-82
2020/12/09 06:54:46;;;;;;;19.35;9.45;;;0.70;99.90;;;;;;5005390;28;20060;-82
2020/12/09 06:57:18;;;;;;;22.02;10.07;;;0.60;99.90;;;;;;5007190;28;20030;-82
2020/12/09 06:59:46;;;;;;;22.00;8.82;;;0.50;99.90;;;;;;4992505;28;20634;-82
2020/12/09 07:02:29;;;;;;;24.45;9.95;;;0.40;99.90;;;;;;5010074;28;20030;-83
2020/12/09 07:04:54;;;;;;;19.55;9.00;;;0.30;99.90;;;;;;5004802;23;20436;-81
2020/12/09 07:07:34;;;;;;;21.85;10.02;;;0.30;99.90;;;;;;4990790;28;20476;-81
2020/12/09 07:10:02;;;;;;;21.05;9.07;;;0.40;99.90;;;;;;4995481;28;20116;-82
2020/12/09 07:12:28;;;;;;;21.70;8.70;;;0.40;99.90;;;;;;4987092;28;20066;-82
2020/12/09 07:14:56;;;;;;;26.02;11.13;;;0.50;99.90;;;;;;5006284;28;20100;-81
2020/12/09 07:17:25;;;;;;;21.73;9.88;;;0.60;99.90;;;;;;4993885;28;20097;-81
2020/12/09 07:19:50;;;;;;;21.13;9.65;;;0.60;99.90;;;;;;4996435;28;20034;-82
2020/12/09 07:22:17;;;;;;;21.70;9.52;;;0.60;99.90;;;;;;4991167;28;20116;-81
2020/12/09 07:24:43;;;;;;;22.10;9.40;;;0.60;99.90;;;;;;5012035;28;20128;-81
2020/12/09 07:27:10;;;;;;;26.75;9.82;;;0.70;99.90;;;;;;4996069;28;20033;-81
2020/12/09 07:29:40;;;;;;;32.20;10.93;;;0.70;99.90;;;;;;4996055;28;20030;-81
2020/12/09 07:32:08;;;;;;;35.83;11.50;;;0.80;99.90;;;;;;5003749;28;20073;-81
2020/12/09 07:34:53;;;;;;;43.60;14.32;;;0.90;99.90;;;;;;4987965;28;20022;-81
2020/12/09 07:37:20;;;;;;;72.28;19.58;;;0.90;99.90;;;;;;4995619;28;20067;-81
2020/12/09 07:39:50;;;;;;;56.75;16.73;;;1.00;99.90;;;;;;4999518;28;20477;-82
2020/12/09 07:42:17;;;;;;;90.68;21.13;;;0.90;99.90;;;;;;4997885;28;20034;-81
2020/12/09 07:44:44;;;;;;;32.88;10.88;;;1.00;99.90;;;;;;4999485;28;20133;-82
2020/12/09 07:47:11;;;;;;;69.93;17.30;;;0.90;99.90;;;;;;5010483;28;20072;-81
2020/12/09 07:49:49;;;;;;;111.15;24.00;;;0.90;99.90;;;;;;4992023;28;20038;-81
2020/12/09 07:52:23;;;;;;;147.10;34.20;;;0.90;99.90;;;;;;4999022;28;20121;-81
2020/12/09 07:54:52;;;;;;;101.15;25.77;;;0.90;99.90;;;;;;4994870;28;20078;-81
2020/12/09 07:57:18;;;;;;;82.90;25.33;;;0.90;99.90;;;;;;5017912;28;20029;-82
2020/12/09 07:59:43;;;;;;;65.18;21.55;;;0.90;99.90;;;;;;4992360;28;20041;-82
2020/12/09 08:02:19;;;;;;;95.72;24.92;;;0.90;99.90;;;;;;4991910;28;20029;-81
2020/12/09 08:04:47;;;;;;;64.00;20.25;;;0.90;99.90;;;;;;5003593;28;20034;-82
2020/12/09 08:07:18;;;;;;;107.05;25.25;;;0.90;99.90;;;;;;4999520;28;20038;-82
2020/12/09 08:10:11;;;;;;;53.05;18.73;;;0.90;99.90;;;;;;5002145;28;20566;-83
2020/12/09 08:12:39;;;;;;;106.32;25.33;;;1.00;99.90;;;;;;4992542;28;20084;-81
2020/12/09 08:15:05;;;;;;;56.75;18.42;;;0.90;99.90;;;;;;4991204;28;20029;-81
2020/12/09 08:17:32;;;;;;;111.47;29.60;;;1.00;99.90;;;;;;4993533;28;20037;-82
2020/12/09 08:20:03;;;;;;;155.57;36.58;;;0.90;99.90;;;;;;5007590;28;20060;-82
2020/12/09 08:22:29;;;;;;;74.80;27.35;;;0.80;99.90;;;;;;4986698;28;20048;-83
2020/12/09 08:25:06;;;;;;;71.65;25.67;;;0.70;99.90;;;;;;4990210;28;20485;-81
2020/12/09 08:27:44;;;;;;;63.10;21.77;;;0.70;99.90;;;;;;4984785;28;20228;-81
2020/12/09 08:30:18;;;;;;;53.42;17.20;;;0.70;99.90;;;;;;4990861;28;20106;-81
2020/12/09 08:33:00;;;;;;;49.05;17.15;;;0.70;99.90;;;;;;4990880;28;20041;-81
2020/12/09 08:35:28;;;;;;;92.45;25.83;;;0.60;99.90;;;;;;4992450;28;20034;-81
2020/12/09 08:37:55;;;;;;;54.22;20.20;;;0.50;99.90;;;;;;5005163;28;20061;-82
2020/12/09 08:40:21;;;;;;;53.33;18.88;;;0.40;99.90;;;;;;5009272;28;20060;-82
2020/12/09 08:42:59;;;;;;;71.18;21.02;;;0.50;99.90;;;;;;4993822;28;20050;-83
2020/12/09 08:45:26;;;;;;;50.75;18.90;;;0.40;99.90;;;;;;5007696;28;20033;-82
2020/12/09 08:47:52;;;;;;;90.18;24.55;;;0.40;99.90;;;;;;5015797;28;20049;-82
2020/12/09 08:50:18;;;;;;;42.40;16.02;;;0.50;99.90;;;;;;5013532;28;20026;-82
2020/12/09 08:52:43;;;;;;;48.65;18.85;;;0.50;99.90;;;;;;4997754;28;20041;-83
2020/12/09 08:55:09;;;;;;;58.45;21.10;;;0.50;99.90;;;;;;5012775;28;20118;-82
2020/12/09 08:57:35;;;;;;;47.80;16.52;;;0.40;99.90;;;;;;5016096;28;20026;-82
2020/12/09 09:00:00;;;;;;;54.70;19.85;;;0.50;99.90;;;;;;5001015;28;20041;-83
2020/12/09 09:02:26;;;;;;;44.85;18.25;;;0.40;99.90;;;;;;5017588;28;20040;-82
2020/12/09 09:04:52;;;;;;;44.67;17.17;;;0.40;99.90;;;;;;4996084;28;20068;-82
2020/12/09 09:07:18;;;;;;;48.70;17.52;;;0.50;99.90;;;;;;5024067;28;20042;-81
2020/12/09 09:09:43;;;;;;;45.47;17.88;;;0.60;99.90;;;;;;5014698;28;20034;-82
2020/12/09 09:12:10;;;;;;;43.65;17.48;;;0.60;99.90;;;;;;5008025;28;20034;-82
2020/12/09 09:14:35;;;;;;;41.63;14.52;;;0.60;99.90;;;;;;5002333;28;20538;-81
2020/12/09 09:17:01;;;;;;;46.25;18.38;;;0.60;99.90;;;;;;4995677;28;20029;-81
2020/12/09 09:19:27;;;;;;;52.10;18.10;;;0.50;99.90;;;;;;5011082;28;20041;-81
2020/12/09 09:21:53;;;;;;;45.08;17.30;;;0.40;99.90;;;;;;4992342;28;20038;-83
2020/12/09 09:24:18;;;;;;;45.30;18.60;;;0.40;99.90;;;;;;5002470;28;20117;-81
2020/12/09 09:26:44;;;;;;;47.85;16.58;;;0.40;99.90;;;;;;4994298;28;20030;-81
2020/12/09 09:29:10;;;;;;;38.97;15.55;;;0.40;99.90;;;;;;5014692;28;20403;-82
2020/12/09 09:31:36;;;;;;;41.78;15.43;;;0.40;99.90;;;;;;5015519;28;20029;-81
2020/12/09 09:34:01;;;;;;;45.15;16.08;;;0.50;99.90;;;;;;5000281;28;20045;-82
2020/12/09 09:36:31;;;;;;;52.90;19.38;;;0.40;99.90;;;;;;5006903;28;20052;-82
2020/12/09 09:38:57;;;;;;;42.30;17.27;;;0.40;99.90;;;;;;4993348;28;20038;-82
2020/12/09 09:41:23;;;;;;;50.85;17.27;;;0.40;99.90;;;;;;5016697;28;20045;-81
2020/12/09 09:43:48;;;;;;;58.03;18.70;;;0.40;99.90;;;;;;5013230;28;20054;-82
2020/12/09 09:46:14;;;;;;;46.53;16.25;;;0.30;99.90;;;;;;5003238;28;20030;-82
2020/12/09 09:48:40;;;;;;;34.17;12.88;;;0.30;99.90;;;;;;5005179;28;20481;-81
2020/12/09 09:51:07;;;;;;;46.67;16.98;;;0.50;99.90;;;;;;4995162;28;20030;-81
2020/12/09 09:53:33;;;;;;;56.20;16.88;;;0.50;99.90;;;;;;4990307;28;20034;-82
2020/12/09 09:55:58;;;;;;;38.40;13.05;;;0.40;99.90;;;;;;5005678;28;20456;-82
2020/12/09 09:58:24;;;;;;;49.10;17.85;;;0.50;99.90;;;;;;5032044;28;20038;-82
2020/12/09 10:00:49;;;;;;;49.20;18.73;;;0.60;99.90;;;;;;5000107;28;20079;-82
2020/12/09 10:03:15;;;;;;;46.63;15.43;;;0.50;99.90;;;;;;5017609;28;20056;-82
2020/12/09 10:05:41;;;;;;;47.42;15.88;;;0.50;99.90;;;;;;4994567;28;20059;-81
2020/12/09 10:08:07;;;;;;;44.15;16.35;;;0.50;99.90;;;;;;4965209;28;20162;-80
2020/12/09 10:10:32;;;;;;;41.47;15.77;;;0.50;99.90;;;;;;4988363;28;20104;-81
2020/12/09 10:12:58;;;;;;;82.93;18.38;;;0.70;99.90;;;;;;4973880;28;20026;-83
2020/12/09 10:15:23;;;;;;;44.58;17.88;;;0.50;99.90;;;;;;4971356;28;20162;-81
2020/12/09 10:17:49;;;;;;;43.72;16.48;;;0.60;99.90;;;;;;4972392;28;20031;-81
2020/12/09 10:20:15;;;;;;;81.93;23.08;;;0.60;99.90;;;;;;4987738;28;20026;-81
2020/12/09 10:22:40;;;;;;;65.28;19.92;;;0.40;99.90;;;;;;4971862;28;20038;-82
2020/12/09 10:25:06;;;;;;;49.75;17.73;;;0.40;99.90;;;;;;4973375;28;20041;-81
2020/12/09 10:27:32;;;;;;;47.30;17.23;;;0.40;99.90;;;;;;4972137;28;20061;-81
2020/12/09 10:29:57;;;;;;;44.05;15.73;;;0.40;99.90;;;;;;4974335;28;20036;-82
2020/12/09 10:32:24;;;;;;;51.22;15.65;;;0.40;99.90;;;;;;4970530;28;20035;-82
2020/12/09 10:34:50;;;;;;;44.95;16.77;;;0.40;99.90;;;;;;4971261;28;20122;-82
2020/12/09 10:37:15;;;;;;;47.22;17.00;;;0.40;99.90;;;;;;4971918;28;20030;-80
2020/12/09 10:39:41;;;;;;;37.30;13.63;;;0.30;99.90;;;;;;4988018;28;20038;-81
2020/12/09 10:42:07;;;;;;;48.95;15.23;;;0.30;99.90;;;;;;4971907;28;20031;-83
2020/12/09 10:44:33;;;;;;;45.10;15.82;;;0.30;99.90;;;;;;4972815;28;20065;-83
2020/12/09 10:47:01;;;;;;;33.70;13.73;;;0.30;99.90;;;;;;4971762;28;20117;-83
2020/12/09 10:49:32;;;;;;;46.63;15.63;;;0.40;99.90;;;;;;4975463;28;20057;-82
2020/12/09 10:51:58;;;;;;;40.47;14.43;;;0.40;99.90;;;;;;4971632;28;20033;-82
2020/12/09 10:54:24;;;;;;;87.10;21.13;;;0.60;99.90;;;;;;4957618;28;20038;-82
2020/12/09 10:56:49;;;;;;;71.50;20.52;;;0.40;99.90;;;;;;4970741;28;20041;-82
2020/12/09 10:59:15;;;;;;;45.05;16.77;;;0.30;99.90;;;;;;4970695;28;20056;-82
2020/12/09 11:01:45;;;;;;;54.53;18.60;;;0.50;99.90;;;;;;4967075;28;20479;-82
2020/12/09 11:04:10;;;;;;;45.03;15.18;;;0.40;99.90;;;;;;4982296;28;20051;-81
2020/12/09 11:06:38;;;;;;;68.35;21.52;;;0.40;99.90;;;;;;4976150;28;20053;-82
2020/12/09 11:09:07;;;;;;;48.10;16.02;;;0.40;99.90;;;;;;4989629;28;20086;-82
2020/12/09 11:11:33;;;;;;;44.20;15.50;;;0.50;99.90;;;;;;5025882;28;20057;-82
2020/12/09 11:13:59;;;;;;;61.67;17.25;;;0.60;99.90;;;;;;4989016;28;20128;-82
2020/12/09 11:16:25;;;;;;;42.45;16.15;;;0.50;99.90;;;;;;4988958;28;20099;-82
2020/12/09 11:18:51;;;;;;;39.85;14.48;;;0.40;99.90;;;;;;4990816;28;20045;-82
2020/12/09 11:21:22;;;;;;;42.65;14.40;;;0.40;99.90;;;;;;4990143;28;20077;-81
2020/12/09 11:23:49;;;;;;;37.63;13.82;;;0.50;99.90;;;;;;4991741;28;20046;-82
2020/12/09 11:26:16;;;;;;;38.83;14.52;;;0.60;99.90;;;;;;4994209;28;20049;-84
2020/12/09 11:28:42;;;;;;;51.03;16.80;;;0.70;99.90;;;;;;4987591;28;20037;-83
2020/12/09 11:31:08;;;;;;;49.00;17.15;;;0.60;99.90;;;;;;4993147;28;20022;-82
2020/12/09 11:33:34;;;;;;;45.78;14.07;;;0.60;99.90;;;;;;4990845;28;20421;-82
2020/12/09 11:36:00;;;;;;;42.10;15.50;;;0.60;99.90;;;;;;4990278;28;20073;-82
2020/12/09 11:38:27;;;;;;;48.90;16.75;;;0.50;99.90;;;;;;5006839;28;20057;-83
2020/12/09 11:40:53;;;;;;;50.95;14.88;;;0.50;99.90;;;;;;4997782;28;20053;-83
2020/12/09 11:43:19;;;;;;;41.78;13.32;;;0.60;99.90;;;;;;4989833;28;20072;-83
2020/12/09 11:45:45;;;;;;;47.22;15.10;;;0.70;99.90;;;;;;5005134;28;20026;-82
2020/12/09 11:48:12;;;;;;;44.22;14.23;;;0.60;99.90;;;;;;4987292;28;20034;-83
2020/12/09 11:50:38;;;;;;;45.45;14.52;;;0.70;99.90;;;;;;4992750;28;20123;-84
2020/12/09 11:53:04;;;;;;;43.30;12.85;;;0.60;99.90;;;;;;5006668;28;20034;-83
2020/12/09 11:55:29;;;;;;;66.63;22.42;;;0.70;99.90;;;;;;4986878;28;20084;-83
2020/12/09 11:57:55;;;;;;;49.50;15.32;;;0.50;99.90;;;;;;5006447;28;20093;-83
2020/12/09 12:00:21;;;;;;;48.45;15.80;;;0.60;99.90;;;;;;4990766;28;20030;-81
2020/12/09 12:02:46;;;;;;;65.05;19.42;;;0.60;99.90;;;;;;4990380;28;20052;-82
2020/12/09 12:05:12;;;;;;;41.45;13.00;;;0.60;99.90;;;;;;4985873;28;20031;-82
2020/12/09 12:07:37;;;;;;;50.92;15.70;;;0.60;99.90;;;;;;4978975;28;20069;-83
2020/12/09 12:10:06;;;;;;;74.45;21.20;;;0.60;99.90;;;;;;5007383;28;20039;-82
2020/12/09 12:12:32;;;;;;;63.70;17.08;;;0.60;99.90;;;;;;4985608;28;20065;-82
2020/12/09 12:14:58;;;;;;;53.55;16.63;;;0.70;99.90;;;;;;5029326;28;20030;-82
2020/12/09 12:17:24;;;;;;;48.30;17.17;;;0.70;99.90;;;;;;4990369;28;20033;-82
2020/12/09 12:19:49;;;;;;;56.05;17.42;;;0.70;99.90;;;;;;4987000;28;20034;-82
2020/12/09 12:22:15;;;;;;;60.97;20.58;;;0.70;99.90;;;;;;5005251;28;20022;-83
2020/12/09 12:24:41;;;;;;;77.95;22.63;;;0.60;99.90;;;;;;5005271;28;20497;-82
2020/12/09 12:27:06;;;;;;;52.80;17.88;;;0.60;99.90;;;;;;5009224;28;20034;-81
2020/12/09 12:29:32;;;;;;;56.67;18.95;;;0.70;99.90;;;;;;5007930;28;20037;-84
2020/12/09 12:31:58;;;;;;;52.17;17.25;;;0.70;99.90;;;;;;5009123;28;20034;-81
2020/12/09 12:34:25;;;;;;;50.40;14.30;;;0.70;99.90;;;;;;4997811;28;20046;-83
2020/12/09 12:36:51;;;;;;;46.30;14.60;;;0.90;99.90;;;;;;5013038;28;20034;-83
2020/12/09 12:39:17;;;;;;;53.83;16.75;;;0.90;99.90;;;;;;4996574;28;20441;-83
2020/12/09 12:41:45;;;;;;;59.45;18.17;;;0.80;99.90;;;;;;4977840;28;20042;-83
2020/12/09 12:44:11;;;;;;;45.25;13.88;;;0.80;99.90;;;;;;4995450;28;20138;-83
2020/12/09 12:46:37;;;;;;;51.65;13.82;;;0.80;99.90;;;;;;4995234;28;20038;-83
2020/12/09 12:49:03;;;;;;;59.83;15.77;;;0.90;99.90;;;;;;4995096;28;20038;-84
2020/12/09 12:51:29;;;;;;;43.58;13.10;;;1.00;99.90;;;;;;5013582;28;20026;-83
2020/12/09 12:53:54;;;;;;;49.05;16.02;;;1.00;99.90;;;;;;5004693;28;20435;-83
2020/12/09 12:56:20;;;;;;;49.95;16.38;;;1.10;99.90;;;;;;4985514;28;20046;-82
2020/12/09 12:58:47;;;;;;;51.17;16.75;;;1.00;99.90;;;;;;4987686;28;20034;-83
2020/12/09 13:01:14;;;;;;;61.95;19.17;;;1.10;99.90;;;;;;4996232;28;20038;-84